sensor_id;sensor_type;location;lat;lon;timestamp;P1;durP1;ratioP1;P2;durP2;ratioP2
2972;SDS011;1496;51.404;7.232;2022-09-03T00:01:56;2.60;;;1.63;;
2972;SDS011;1496;51.404;7.232;2022-09-03T00:04:40;2.40;;;1.50;;
2972;SDS011;1496;51.404;7.232;2022-09-03T00:07:14;1.90;;;1.40;;
2972;SDS011;1496;51.404;7.232;2022-09-03T00:10:07;13.43;;;2.17;;
2972;SDS011;1496;51.404;7.232;2022-09-03T00:12:41;2.90;;;1.30;;
2972;SDS011;1496;51.404;7.232;2022-09-03T00:15:09;2.20;;;1.30;;
2972;SDS011;1496;51.404;7.232;2022-09-03T00:20:34;7.23;;;2.10;;
2972;SDS011;1496;51.404;7.232;2022-09-03T00:23:08;3.00;;;1.83;;
2972;SDS011;1496;51.404;7.232;2022-09-03T00:25:41;2.17;;;1.43;;
2972;SDS011;1496;51.404;7.232;2022-09-03T00:28:22;3.77;;;1.60;;
2972;SDS011;1496;51.404;7.232;2022-09-03T00:34:05;1.73;;;0.90;;
2972;SDS011;1496;51.404;7.232;2022-09-03T00:36:43;2.17;;;1.50;;
2972;SDS011;1496;51.404;7.232;2022-09-03T00:39:10;8.57;;;1.40;;
2972;SDS011;1496;51.404;7.232;2022-09-03T00:42:12;5.93;;;1.60;;
2972;SDS011;1496;51.404;7.232;2022-09-03T00:44:46;1.83;;;1.60;;
2972;SDS011;1496;51.404;7.232;2022-09-03T00:50:04;2.03;;;1.33;;
2972;SDS011;1496;51.404;7.232;2022-09-03T01:00:40;1.87;;;1.43;;
2972;SDS011;1496;51.404;7.232;2022-09-03T01:06:18;1.87;;;1.20;;
2972;SDS011;1496;51.404;7.232;2022-09-03T01:11:46;2.90;;;1.37;;
2972;SDS011;1496;51.404;7.232;2022-09-03T01:14:32;2.43;;;1.57;;
2972;SDS011;1496;51.404;7.232;2022-09-03T01:17:31;2.80;;;1.10;;
2972;SDS011;1496;51.404;7.232;2022-09-03T01:28:18;2.60;;;1.27;;
2972;SDS011;1496;51.404;7.232;2022-09-03T01:30:48;2.33;;;1.20;;
2972;SDS011;1496;51.404;7.232;2022-09-03T01:33:58;3.67;;;1.37;;
2972;SDS011;1496;51.404;7.232;2022-09-03T01:36:43;1.43;;;1.07;;
2972;SDS011;1496;51.404;7.232;2022-09-03T01:42:26;2.40;;;1.20;;
2972;SDS011;1496;51.404;7.232;2022-09-03T01:45:15;4.87;;;1.67;;
2972;SDS011;1496;51.404;7.232;2022-09-03T01:48:13;1.40;;;1.17;;
2972;SDS011;1496;51.404;7.232;2022-09-03T01:59:23;4.23;;;1.43;;
2972;SDS011;1496;51.404;7.232;2022-09-03T02:04:31;3.10;;;1.20;;
2972;SDS011;1496;51.404;7.232;2022-09-03T02:06:58;3.23;;;1.23;;
2972;SDS011;1496;51.404;7.232;2022-09-03T02:09:26;2.33;;;1.20;;
2972;SDS011;1496;51.404;7.232;2022-09-03T02:11:57;1.73;;;1.10;;
2972;SDS011;1496;51.404;7.232;2022-09-03T02:14:32;1.60;;;1.33;;
2972;SDS011;1496;51.404;7.232;2022-09-03T02:16:59;1.97;;;1.20;;
2972;SDS011;1496;51.404;7.232;2022-09-03T02:19:27;2.93;;;1.50;;
2972;SDS011;1496;51.404;7.232;2022-09-03T02:21:54;1.90;;;1.20;;
2972;SDS011;1496;51.404;7.232;2022-09-03T02:24:21;2.20;;;1.43;;
2972;SDS011;1496;51.404;7.232;2022-09-03T02:26:52;2.47;;;1.43;;
2972;SDS011;1496;51.404;7.232;2022-09-03T02:29:18;2.53;;;1.43;;
2972;SDS011;1496;51.404;7.232;2022-09-03T02:31:44;3.20;;;1.50;;
2972;SDS011;1496;51.404;7.232;2022-09-03T02:34:10;2.33;;;1.50;;
2972;SDS011;1496;51.404;7.232;2022-09-03T02:36:40;1.70;;;1.30;;
2972;SDS011;1496;51.404;7.232;2022-09-03T02:39:08;1.60;;;1.33;;
2972;SDS011;1496;51.404;7.232;2022-09-03T02:41:33;2.70;;;1.13;;
2972;SDS011;1496;51.404;7.232;2022-09-03T02:46:36;9.13;;;1.40;;
2972;SDS011;1496;51.404;7.232;2022-09-03T02:49:05;2.70;;;1.47;;
2972;SDS011;1496;51.404;7.232;2022-09-03T02:51:36;2.10;;;1.43;;
2972;SDS011;1496;51.404;7.232;2022-09-03T02:54:04;2.43;;;1.30;;
2972;SDS011;1496;51.404;7.232;2022-09-03T02:56:30;2.73;;;1.57;;
2972;SDS011;1496;51.404;7.232;2022-09-03T02:58:56;5.50;;;1.27;;
2972;SDS011;1496;51.404;7.232;2022-09-03T03:01:22;1.70;;;1.20;;
2972;SDS011;1496;51.404;7.232;2022-09-03T03:03:49;2.37;;;1.50;;
2972;SDS011;1496;51.404;7.232;2022-09-03T03:06:15;2.13;;;1.47;;
2972;SDS011;1496;51.404;7.232;2022-09-03T03:08:40;2.07;;;1.30;;
2972;SDS011;1496;51.404;7.232;2022-09-03T03:11:08;1.77;;;1.20;;
2972;SDS011;1496;51.404;7.232;2022-09-03T03:13:33;1.50;;;1.20;;
2972;SDS011;1496;51.404;7.232;2022-09-03T03:16:00;2.83;;;1.40;;
2972;SDS011;1496;51.404;7.232;2022-09-03T03:18:28;3.00;;;1.50;;
2972;SDS011;1496;51.404;7.232;2022-09-03T03:20:54;4.40;;;1.80;;
2972;SDS011;1496;51.404;7.232;2022-09-03T03:23:20;2.13;;;1.50;;
2972;SDS011;1496;51.404;7.232;2022-09-03T03:25:45;2.50;;;1.70;;
2972;SDS011;1496;51.404;7.232;2022-09-03T03:28:11;2.03;;;1.30;;
2972;SDS011;1496;51.404;7.232;2022-09-03T03:30:42;3.23;;;1.53;;
2972;SDS011;1496;51.404;7.232;2022-09-03T03:33:11;3.00;;;1.60;;
2972;SDS011;1496;51.404;7.232;2022-09-03T03:35:37;4.43;;;1.40;;
2972;SDS011;1496;51.404;7.232;2022-09-03T03:38:02;1.77;;;1.23;;
2972;SDS011;1496;51.404;7.232;2022-09-03T03:40:29;3.13;;;1.30;;
2972;SDS011;1496;51.404;7.232;2022-09-03T03:42:56;1.43;;;1.10;;
2972;SDS011;1496;51.404;7.232;2022-09-03T03:45:22;4.33;;;1.30;;
2972;SDS011;1496;51.404;7.232;2022-09-03T03:47:48;3.03;;;1.20;;
2972;SDS011;1496;51.404;7.232;2022-09-03T03:50:14;2.60;;;1.57;;
2972;SDS011;1496;51.404;7.232;2022-09-03T03:52:40;4.13;;;1.47;;
2972;SDS011;1496;51.404;7.232;2022-09-03T03:55:07;3.00;;;1.43;;
2972;SDS011;1496;51.404;7.232;2022-09-03T03:57:33;2.23;;;1.33;;
2972;SDS011;1496;51.404;7.232;2022-09-03T04:00:00;3.30;;;1.20;;
2972;SDS011;1496;51.404;7.232;2022-09-03T04:02:39;2.47;;;1.40;;
2972;SDS011;1496;51.404;7.232;2022-09-03T04:05:05;1.90;;;1.50;;
2972;SDS011;1496;51.404;7.232;2022-09-03T04:07:31;2.50;;;1.40;;
2972;SDS011;1496;51.404;7.232;2022-09-03T04:09:56;2.80;;;1.23;;
2972;SDS011;1496;51.404;7.232;2022-09-03T04:12:22;2.40;;;1.60;;
2972;SDS011;1496;51.404;7.232;2022-09-03T04:14:47;4.63;;;1.40;;
2972;SDS011;1496;51.404;7.232;2022-09-03T04:17:13;7.13;;;1.37;;
2972;SDS011;1496;51.404;7.232;2022-09-03T04:19:41;1.87;;;1.20;;
2972;SDS011;1496;51.404;7.232;2022-09-03T04:22:06;3.40;;;1.60;;
2972;SDS011;1496;51.404;7.232;2022-09-03T04:24:32;2.17;;;1.40;;
2972;SDS011;1496;51.404;7.232;2022-09-03T04:26:57;3.17;;;1.20;;
2972;SDS011;1496;51.404;7.232;2022-09-03T04:29:23;1.57;;;1.37;;
2972;SDS011;1496;51.404;7.232;2022-09-03T04:31:49;2.50;;;1.87;;
2972;SDS011;1496;51.404;7.232;2022-09-03T04:34:33;3.93;;;1.40;;
2972;SDS011;1496;51.404;7.232;2022-09-03T04:36:59;2.30;;;1.63;;
2972;SDS011;1496;51.404;7.232;2022-09-03T04:39:25;2.80;;;1.10;;
2972;SDS011;1496;51.404;7.232;2022-09-03T04:41:50;1.87;;;1.40;;
2972;SDS011;1496;51.404;7.232;2022-09-03T04:44:16;5.60;;;1.43;;
2972;SDS011;1496;51.404;7.232;2022-09-03T04:46:42;3.60;;;1.50;;
2972;SDS011;1496;51.404;7.232;2022-09-03T04:49:08;2.10;;;1.43;;
2972;SDS011;1496;51.404;7.232;2022-09-03T04:51:34;2.23;;;1.70;;
2972;SDS011;1496;51.404;7.232;2022-09-03T04:54:02;4.07;;;1.60;;
2972;SDS011;1496;51.404;7.232;2022-09-03T04:56:32;1.57;;;1.33;;
2972;SDS011;1496;51.404;7.232;2022-09-03T04:59:06;1.57;;;1.30;;
2972;SDS011;1496;51.404;7.232;2022-09-03T05:01:33;2.77;;;1.07;;
2972;SDS011;1496;51.404;7.232;2022-09-03T05:04:01;2.07;;;1.50;;
2972;SDS011;1496;51.404;7.232;2022-09-03T05:06:28;3.93;;;1.83;;
2972;SDS011;1496;51.404;7.232;2022-09-03T05:08:55;3.03;;;1.43;;
2972;SDS011;1496;51.404;7.232;2022-09-03T05:11:22;3.07;;;1.53;;
2972;SDS011;1496;51.404;7.232;2022-09-03T05:13:49;2.10;;;1.53;;
2972;SDS011;1496;51.404;7.232;2022-09-03T05:16:17;4.00;;;1.40;;
2972;SDS011;1496;51.404;7.232;2022-09-03T05:18:43;5.93;;;1.60;;
2972;SDS011;1496;51.404;7.232;2022-09-03T05:21:13;3.70;;;1.50;;
2972;SDS011;1496;51.404;7.232;2022-09-03T05:23:40;1.87;;;1.40;;
2972;SDS011;1496;51.404;7.232;2022-09-03T05:26:08;5.63;;;1.30;;
2972;SDS011;1496;51.404;7.232;2022-09-03T05:28:36;2.70;;;1.60;;
2972;SDS011;1496;51.404;7.232;2022-09-03T05:31:07;6.70;;;1.60;;
2972;SDS011;1496;51.404;7.232;2022-09-03T05:33:36;2.53;;;1.80;;
2972;SDS011;1496;51.404;7.232;2022-09-03T05:36:10;5.93;;;2.23;;
2972;SDS011;1496;51.404;7.232;2022-09-03T05:38:37;3.00;;;1.33;;
2972;SDS011;1496;51.404;7.232;2022-09-03T05:41:04;2.40;;;1.57;;
2972;SDS011;1496;51.404;7.232;2022-09-03T05:43:32;2.80;;;1.83;;
2972;SDS011;1496;51.404;7.232;2022-09-03T05:45:59;4.03;;;1.70;;
2972;SDS011;1496;51.404;7.232;2022-09-03T05:48:26;2.37;;;1.83;;
2972;SDS011;1496;51.404;7.232;2022-09-03T05:51:02;2.57;;;1.80;;
2972;SDS011;1496;51.404;7.232;2022-09-03T05:53:30;1.63;;;1.30;;
2972;SDS011;1496;51.404;7.232;2022-09-03T05:55:58;2.67;;;2.27;;
2972;SDS011;1496;51.404;7.232;2022-09-03T05:58:32;2.60;;;2.00;;
2972;SDS011;1496;51.404;7.232;2022-09-03T06:00:59;3.50;;;2.10;;
2972;SDS011;1496;51.404;7.232;2022-09-03T06:03:25;2.47;;;1.80;;
2972;SDS011;1496;51.404;7.232;2022-09-03T06:05:51;3.00;;;1.67;;
2972;SDS011;1496;51.404;7.232;2022-09-03T06:08:18;2.30;;;1.73;;
2972;SDS011;1496;51.404;7.232;2022-09-03T06:10:47;5.37;;;2.07;;
2972;SDS011;1496;51.404;7.232;2022-09-03T06:13:13;5.93;;;2.00;;
2972;SDS011;1496;51.404;7.232;2022-09-03T06:15:38;5.10;;;1.73;;
2972;SDS011;1496;51.404;7.232;2022-09-03T06:18:04;3.10;;;2.00;;
2972;SDS011;1496;51.404;7.232;2022-09-03T06:20:30;5.10;;;2.47;;
2972;SDS011;1496;51.404;7.232;2022-09-03T06:22:57;2.43;;;1.73;;
2972;SDS011;1496;51.404;7.232;2022-09-03T06:25:23;7.37;;;2.27;;
2972;SDS011;1496;51.404;7.232;2022-09-03T06:27:49;7.63;;;2.90;;
2972;SDS011;1496;51.404;7.232;2022-09-03T06:30:14;3.90;;;2.60;;
2972;SDS011;1496;51.404;7.232;2022-09-03T06:32:47;5.00;;;2.13;;
2972;SDS011;1496;51.404;7.232;2022-09-03T06:35:18;4.63;;;2.60;;
2972;SDS011;1496;51.404;7.232;2022-09-03T06:37:44;11.20;;;2.30;;
2972;SDS011;1496;51.404;7.232;2022-09-03T06:40:10;2.40;;;1.60;;
2972;SDS011;1496;51.404;7.232;2022-09-03T06:42:53;3.37;;;1.97;;
2972;SDS011;1496;51.404;7.232;2022-09-03T06:45:23;11.73;;;2.40;;
2972;SDS011;1496;51.404;7.232;2022-09-03T06:47:49;4.97;;;2.50;;
2972;SDS011;1496;51.404;7.232;2022-09-03T06:50:14;5.20;;;2.83;;
2972;SDS011;1496;51.404;7.232;2022-09-03T06:52:42;4.67;;;2.20;;
2972;SDS011;1496;51.404;7.232;2022-09-03T06:55:07;4.53;;;2.40;;
2972;SDS011;1496;51.404;7.232;2022-09-03T06:57:33;3.60;;;2.13;;
2972;SDS011;1496;51.404;7.232;2022-09-03T06:59:59;3.43;;;2.07;;
2972;SDS011;1496;51.404;7.232;2022-09-03T07:02:27;4.67;;;2.40;;
2972;SDS011;1496;51.404;7.232;2022-09-03T07:04:52;3.10;;;1.83;;
2972;SDS011;1496;51.404;7.232;2022-09-03T07:07:18;2.00;;;1.40;;
2972;SDS011;1496;51.404;7.232;2022-09-03T07:09:44;2.37;;;1.17;;
2972;SDS011;1496;51.404;7.232;2022-09-03T07:12:09;5.23;;;1.97;;
2972;SDS011;1496;51.404;7.232;2022-09-03T07:14:36;3.20;;;1.90;;
2972;SDS011;1496;51.404;7.232;2022-09-03T07:17:01;6.07;;;2.83;;
2972;SDS011;1496;51.404;7.232;2022-09-03T07:19:27;6.83;;;2.03;;
2972;SDS011;1496;51.404;7.232;2022-09-03T07:21:52;9.60;;;1.90;;
2972;SDS011;1496;51.404;7.232;2022-09-03T07:24:18;3.00;;;1.47;;
2972;SDS011;1496;51.404;7.232;2022-09-03T07:26:45;2.10;;;1.40;;
2972;SDS011;1496;51.404;7.232;2022-09-03T07:29:13;6.10;;;2.23;;
2972;SDS011;1496;51.404;7.232;2022-09-03T07:31:40;2.40;;;1.60;;
2972;SDS011;1496;51.404;7.232;2022-09-03T07:34:08;3.63;;;1.60;;
2972;SDS011;1496;51.404;7.232;2022-09-03T07:36:42;3.93;;;1.63;;
2972;SDS011;1496;51.404;7.232;2022-09-03T07:39:11;2.07;;;1.30;;
2972;SDS011;1496;51.404;7.232;2022-09-03T07:41:38;2.13;;;1.73;;
2972;SDS011;1496;51.404;7.232;2022-09-03T07:44:09;3.10;;;1.30;;
2972;SDS011;1496;51.404;7.232;2022-09-03T07:46:43;2.73;;;1.20;;
2972;SDS011;1496;51.404;7.232;2022-09-03T07:49:10;2.13;;;1.60;;
2972;SDS011;1496;51.404;7.232;2022-09-03T07:51:36;3.20;;;1.63;;
2972;SDS011;1496;51.404;7.232;2022-09-03T07:54:04;2.73;;;1.30;;
2972;SDS011;1496;51.404;7.232;2022-09-03T07:56:34;2.83;;;1.50;;
2972;SDS011;1496;51.404;7.232;2022-09-03T07:59:01;2.93;;;1.33;;
2972;SDS011;1496;51.404;7.232;2022-09-03T08:01:27;2.03;;;1.20;;
2972;SDS011;1496;51.404;7.232;2022-09-03T08:03:55;2.90;;;1.43;;
2972;SDS011;1496;51.404;7.232;2022-09-03T08:06:23;2.23;;;1.10;;
2972;SDS011;1496;51.404;7.232;2022-09-03T08:08:53;1.90;;;1.40;;
2972;SDS011;1496;51.404;7.232;2022-09-03T08:11:22;6.30;;;1.70;;
2972;SDS011;1496;51.404;7.232;2022-09-03T08:13:53;2.30;;;1.67;;
2972;SDS011;1496;51.404;7.232;2022-09-03T08:16:19;2.50;;;1.53;;
2972;SDS011;1496;51.404;7.232;2022-09-03T08:18:45;10.57;;;1.67;;
2972;SDS011;1496;51.404;7.232;2022-09-03T08:21:15;2.37;;;1.33;;
2972;SDS011;1496;51.404;7.232;2022-09-03T08:23:47;3.73;;;1.90;;
2972;SDS011;1496;51.404;7.232;2022-09-03T08:26:14;5.00;;;1.43;;
2972;SDS011;1496;51.404;7.232;2022-09-03T08:28:41;2.03;;;1.30;;
2972;SDS011;1496;51.404;7.232;2022-09-03T08:31:08;8.00;;;1.50;;
2972;SDS011;1496;51.404;7.232;2022-09-03T08:33:36;4.23;;;2.13;;
2972;SDS011;1496;51.404;7.232;2022-09-03T08:36:07;3.20;;;1.80;;
2972;SDS011;1496;51.404;7.232;2022-09-03T08:38:47;5.17;;;1.40;;
2972;SDS011;1496;51.404;7.232;2022-09-03T08:41:15;1.80;;;1.33;;
2972;SDS011;1496;51.404;7.232;2022-09-03T08:49:55;2.70;;;1.43;;
2972;SDS011;1496;51.404;7.232;2022-09-03T08:52:25;3.20;;;1.40;;
2972;SDS011;1496;51.404;7.232;2022-09-03T09:01:00;5.50;;;1.40;;
2972;SDS011;1496;51.404;7.232;2022-09-03T09:06:47;3.03;;;1.40;;
2972;SDS011;1496;51.404;7.232;2022-09-03T09:12:54;2.70;;;1.20;;
2972;SDS011;1496;51.404;7.232;2022-09-03T09:21:11;1.83;;;1.43;;
2972;SDS011;1496;51.404;7.232;2022-09-03T09:23:43;6.53;;;1.60;;
2972;SDS011;1496;51.404;7.232;2022-09-03T09:26:15;2.53;;;1.63;;
2972;SDS011;1496;51.404;7.232;2022-09-03T09:28:44;2.63;;;1.60;;
2972;SDS011;1496;51.404;7.232;2022-09-03T09:31:19;4.33;;;1.73;;
2972;SDS011;1496;51.404;7.232;2022-09-03T09:33:44;1.90;;;1.67;;
2972;SDS011;1496;51.404;7.232;2022-09-03T09:36:12;6.57;;;1.90;;
2972;SDS011;1496;51.404;7.232;2022-09-03T09:38:41;2.73;;;1.50;;
2972;SDS011;1496;51.404;7.232;2022-09-03T09:41:15;2.00;;;1.40;;
2972;SDS011;1496;51.404;7.232;2022-09-03T09:43:45;7.00;;;2.00;;
2972;SDS011;1496;51.404;7.232;2022-09-03T09:46:21;3.47;;;1.93;;
2972;SDS011;1496;51.404;7.232;2022-09-03T09:48:50;3.33;;;1.50;;
2972;SDS011;1496;51.404;7.232;2022-09-03T09:51:24;1.80;;;1.30;;
2972;SDS011;1496;51.404;7.232;2022-09-03T09:54:02;3.93;;;1.60;;
2972;SDS011;1496;51.404;7.232;2022-09-03T09:56:36;3.77;;;1.83;;
2972;SDS011;1496;51.404;7.232;2022-09-03T09:59:03;4.13;;;1.50;;
2972;SDS011;1496;51.404;7.232;2022-09-03T10:01:33;2.27;;;1.70;;
2972;SDS011;1496;51.404;7.232;2022-09-03T10:04:09;4.43;;;2.10;;
2972;SDS011;1496;51.404;7.232;2022-09-03T10:06:56;3.13;;;1.97;;
2972;SDS011;1496;51.404;7.232;2022-09-03T10:09:30;5.60;;;1.90;;
2972;SDS011;1496;51.404;7.232;2022-09-03T10:14:44;4.80;;;1.80;;
2972;SDS011;1496;51.404;7.232;2022-09-03T10:17:18;2.70;;;1.87;;
2972;SDS011;1496;51.404;7.232;2022-09-03T10:20:06;3.20;;;1.83;;
2972;SDS011;1496;51.404;7.232;2022-09-03T10:23:06;2.37;;;1.77;;
2972;SDS011;1496;51.404;7.232;2022-09-03T10:28:36;2.60;;;1.53;;
2972;SDS011;1496;51.404;7.232;2022-09-03T10:31:19;2.50;;;1.90;;
2972;SDS011;1496;51.404;7.232;2022-09-03T10:36:24;5.07;;;1.93;;
2972;SDS011;1496;51.404;7.232;2022-09-03T10:39:11;4.20;;;1.87;;
2972;SDS011;1496;51.404;7.232;2022-09-03T10:47:19;3.50;;;1.90;;
2972;SDS011;1496;51.404;7.232;2022-09-03T10:49:52;3.20;;;2.10;;
2972;SDS011;1496;51.404;7.232;2022-09-03T10:55:40;4.17;;;1.57;;
2972;SDS011;1496;51.404;7.232;2022-09-03T10:58:24;5.10;;;2.07;;
2972;SDS011;1496;51.404;7.232;2022-09-03T11:01:25;4.13;;;1.90;;
2972;SDS011;1496;51.404;7.232;2022-09-03T11:06:34;2.80;;;1.73;;
2972;SDS011;1496;51.404;7.232;2022-09-03T11:09:17;2.40;;;2.20;;
2972;SDS011;1496;51.404;7.232;2022-09-03T11:14:39;4.13;;;2.10;;
2972;SDS011;1496;51.404;7.232;2022-09-03T11:17:19;1.83;;;1.43;;
2972;SDS011;1496;51.404;7.232;2022-09-03T11:19:54;2.67;;;1.80;;
2972;SDS011;1496;51.404;7.232;2022-09-03T11:22:26;2.37;;;1.87;;
2972;SDS011;1496;51.404;7.232;2022-09-03T11:24:55;3.90;;;1.87;;
2972;SDS011;1496;51.404;7.232;2022-09-03T11:27:43;3.43;;;2.00;;
2972;SDS011;1496;51.404;7.232;2022-09-03T11:30:28;2.43;;;1.50;;
2972;SDS011;1496;51.404;7.232;2022-09-03T11:33:20;3.50;;;1.67;;
2972;SDS011;1496;51.404;7.232;2022-09-03T11:35:59;1.87;;;1.40;;
2972;SDS011;1496;51.404;7.232;2022-09-03T11:38:26;5.37;;;1.87;;
2972;SDS011;1496;51.404;7.232;2022-09-03T11:43:40;4.30;;;1.73;;
2972;SDS011;1496;51.404;7.232;2022-09-03T11:48:46;4.50;;;1.80;;
2972;SDS011;1496;51.404;7.232;2022-09-03T11:53:54;2.73;;;1.63;;
2972;SDS011;1496;51.404;7.232;2022-09-03T11:56:22;5.97;;;2.00;;
2972;SDS011;1496;51.404;7.232;2022-09-03T12:18:30;3.40;;;1.80;;
2972;SDS011;1496;51.404;7.232;2022-09-03T12:21:00;2.13;;;1.80;;
2972;SDS011;1496;51.404;7.232;2022-09-03T12:26:40;2.20;;;2.00;;
2972;SDS011;1496;51.404;7.232;2022-09-03T12:29:00;4.50;;;1.97;;
2972;SDS011;1496;51.404;7.232;2022-09-03T12:31:27;3.47;;;2.37;;
2972;SDS011;1496;51.404;7.232;2022-09-03T12:33:59;3.40;;;2.00;;
2972;SDS011;1496;51.404;7.232;2022-09-03T12:36:26;5.03;;;1.90;;
2972;SDS011;1496;51.404;7.232;2022-09-03T12:41:56;4.67;;;2.20;;
2972;SDS011;1496;51.404;7.232;2022-09-03T12:44:29;4.70;;;2.67;;
2972;SDS011;1496;51.404;7.232;2022-09-03T12:47:02;2.90;;;2.23;;
2972;SDS011;1496;51.404;7.232;2022-09-03T12:49:35;3.00;;;2.60;;
2972;SDS011;1496;51.404;7.232;2022-09-03T12:57:32;3.73;;;2.23;;
2972;SDS011;1496;51.404;7.232;2022-09-03T13:00:01;2.30;;;1.80;;
2972;SDS011;1496;51.404;7.232;2022-09-03T13:02:40;2.37;;;2.13;;
2972;SDS011;1496;51.404;7.232;2022-09-03T13:05:16;3.10;;;2.03;;
2972;SDS011;1496;51.404;7.232;2022-09-03T13:07:45;7.37;;;2.63;;
2972;SDS011;1496;51.404;7.232;2022-09-03T13:10:22;2.80;;;2.23;;
2972;SDS011;1496;51.404;7.232;2022-09-03T13:12:57;5.00;;;2.40;;
2972;SDS011;1496;51.404;7.232;2022-09-03T13:15:28;2.43;;;2.23;;
2972;SDS011;1496;51.404;7.232;2022-09-03T13:18:03;3.30;;;2.33;;
2972;SDS011;1496;51.404;7.232;2022-09-03T13:20:33;4.50;;;2.43;;
2972;SDS011;1496;51.404;7.232;2022-09-03T13:23:11;3.27;;;2.30;;
2972;SDS011;1496;51.404;7.232;2022-09-03T13:25:51;2.57;;;2.37;;
2972;SDS011;1496;51.404;7.232;2022-09-03T13:31:47;2.43;;;2.03;;
2972;SDS011;1496;51.404;7.232;2022-09-03T13:37:13;2.60;;;2.20;;
2972;SDS011;1496;51.404;7.232;2022-09-03T13:39:55;2.90;;;2.47;;
2972;SDS011;1496;51.404;7.232;2022-09-03T13:42:31;2.77;;;2.50;;
2972;SDS011;1496;51.404;7.232;2022-09-03T13:47:55;4.10;;;2.70;;
2972;SDS011;1496;51.404;7.232;2022-09-03T13:50:47;8.43;;;3.23;;
2972;SDS011;1496;51.404;7.232;2022-09-03T13:53:21;4.70;;;2.60;;
2972;SDS011;1496;51.404;7.232;2022-09-03T13:56:12;4.37;;;2.40;;
2972;SDS011;1496;51.404;7.232;2022-09-03T13:58:55;6.67;;;2.40;;
2972;SDS011;1496;51.404;7.232;2022-09-03T14:01:42;3.57;;;2.47;;
2972;SDS011;1496;51.404;7.232;2022-09-03T14:04:28;2.50;;;2.30;;
2972;SDS011;1496;51.404;7.232;2022-09-03T14:07:14;3.17;;;2.60;;
2972;SDS011;1496;51.404;7.232;2022-09-03T14:10:09;3.50;;;2.07;;
2972;SDS011;1496;51.404;7.232;2022-09-03T14:12:52;3.33;;;2.57;;
2972;SDS011;1496;51.404;7.232;2022-09-03T14:15:43;3.40;;;2.60;;
2972;SDS011;1496;51.404;7.232;2022-09-03T14:21:28;7.23;;;2.93;;
2972;SDS011;1496;51.404;7.232;2022-09-03T14:24:09;3.07;;;2.53;;
2972;SDS011;1496;51.404;7.232;2022-09-03T14:26:57;3.47;;;2.33;;
2972;SDS011;1496;51.404;7.232;2022-09-03T14:29:27;3.13;;;2.20;;
2972;SDS011;1496;51.404;7.232;2022-09-03T14:40:39;3.20;;;2.50;;
2972;SDS011;1496;51.404;7.232;2022-09-03T14:43:12;3.20;;;2.30;;
2972;SDS011;1496;51.404;7.232;2022-09-03T15:10:00;3.40;;;2.73;;
2972;SDS011;1496;51.404;7.232;2022-09-03T15:12:40;4.20;;;2.00;;
2972;SDS011;1496;51.404;7.232;2022-09-03T15:15:32;3.50;;;2.10;;
2972;SDS011;1496;51.404;7.232;2022-09-03T15:24:14;2.53;;;2.07;;
2972;SDS011;1496;51.404;7.232;2022-09-03T15:32:47;2.87;;;2.57;;
2972;SDS011;1496;51.404;7.232;2022-09-03T15:35:34;3.20;;;2.30;;
2972;SDS011;1496;51.404;7.232;2022-09-03T15:41:00;3.30;;;2.30;;
2972;SDS011;1496;51.404;7.232;2022-09-03T15:43:32;8.20;;;2.07;;
2972;SDS011;1496;51.404;7.232;2022-09-03T15:45:59;4.17;;;2.70;;
2972;SDS011;1496;51.404;7.232;2022-09-03T15:51:27;3.00;;;2.47;;
2972;SDS011;1496;51.404;7.232;2022-09-03T15:54:11;4.00;;;2.70;;
2972;SDS011;1496;51.404;7.232;2022-09-03T15:56:54;7.37;;;2.30;;
2972;SDS011;1496;51.404;7.232;2022-09-03T15:59:36;4.20;;;2.37;;
2972;SDS011;1496;51.404;7.232;2022-09-03T16:02:15;2.20;;;1.80;;
2972;SDS011;1496;51.404;7.232;2022-09-03T16:19:17;2.77;;;2.33;;
2972;SDS011;1496;51.404;7.232;2022-09-03T16:21:50;4.30;;;2.30;;
2972;SDS011;1496;51.404;7.232;2022-09-03T16:30:00;6.60;;;1.83;;
2972;SDS011;1496;51.404;7.232;2022-09-03T16:35:23;3.23;;;2.10;;
2972;SDS011;1496;51.404;7.232;2022-09-03T16:40:43;2.70;;;1.70;;
2972;SDS011;1496;51.404;7.232;2022-09-03T16:43:31;6.30;;;2.50;;
2972;SDS011;1496;51.404;7.232;2022-09-03T16:52:42;4.73;;;2.10;;
2972;SDS011;1496;51.404;7.232;2022-09-03T16:55:35;2.10;;;1.70;;
2972;SDS011;1496;51.404;7.232;2022-09-03T17:00:58;2.60;;;1.83;;
2972;SDS011;1496;51.404;7.232;2022-09-03T17:03:56;4.90;;;2.10;;
2972;SDS011;1496;51.404;7.232;2022-09-03T17:16:02;3.87;;;2.60;;
2972;SDS011;1496;51.404;7.232;2022-09-03T17:21:19;2.27;;;2.00;;
2972;SDS011;1496;51.404;7.232;2022-09-03T17:26:48;5.13;;;2.93;;
2972;SDS011;1496;51.404;7.232;2022-09-03T17:43:46;2.93;;;2.60;;
2972;SDS011;1496;51.404;7.232;2022-09-03T17:49:12;4.73;;;2.53;;
2972;SDS011;1496;51.404;7.232;2022-09-03T17:52:03;3.17;;;2.50;;
2972;SDS011;1496;51.404;7.232;2022-09-03T17:54:42;3.50;;;2.77;;
2972;SDS011;1496;51.404;7.232;2022-09-03T17:57:14;3.03;;;2.57;;
2972;SDS011;1496;51.404;7.232;2022-09-03T18:07:37;2.60;;;2.07;;
2972;SDS011;1496;51.404;7.232;2022-09-03T18:10:15;4.10;;;2.57;;
2972;SDS011;1496;51.404;7.232;2022-09-03T18:15:31;5.20;;;2.50;;
2972;SDS011;1496;51.404;7.232;2022-09-03T18:18:04;3.30;;;2.80;;
2972;SDS011;1496;51.404;7.232;2022-09-03T18:20:49;4.07;;;2.43;;
2972;SDS011;1496;51.404;7.232;2022-09-03T18:26:30;3.20;;;2.77;;
2972;SDS011;1496;51.404;7.232;2022-09-03T18:32:28;3.53;;;2.30;;
2972;SDS011;1496;51.404;7.232;2022-09-03T18:35:13;4.00;;;2.50;;
2972;SDS011;1496;51.404;7.232;2022-09-03T18:37:58;5.73;;;2.33;;
2972;SDS011;1496;51.404;7.232;2022-09-03T18:40:48;5.17;;;2.27;;
2972;SDS011;1496;51.404;7.232;2022-09-03T18:49:44;3.33;;;2.30;;
2972;SDS011;1496;51.404;7.232;2022-09-03T19:01:45;3.43;;;2.10;;
2972;SDS011;1496;51.404;7.232;2022-09-03T19:07:59;3.27;;;2.23;;
2972;SDS011;1496;51.404;7.232;2022-09-03T19:11:08;2.33;;;1.93;;
2972;SDS011;1496;51.404;7.232;2022-09-03T19:14:26;1.93;;;1.40;;
2972;SDS011;1496;51.404;7.232;2022-09-03T19:17:14;2.20;;;1.50;;
2972;SDS011;1496;51.404;7.232;2022-09-03T19:20:24;1.90;;;1.70;;
2972;SDS011;1496;51.404;7.232;2022-09-03T19:23:13;3.50;;;1.77;;
2972;SDS011;1496;51.404;7.232;2022-09-03T19:26:01;4.80;;;2.87;;
2972;SDS011;1496;51.404;7.232;2022-09-03T19:28:56;2.73;;;2.03;;
2972;SDS011;1496;51.404;7.232;2022-09-03T19:31:51;2.13;;;1.47;;
2972;SDS011;1496;51.404;7.232;2022-09-03T19:40:32;1.93;;;1.73;;
2972;SDS011;1496;51.404;7.232;2022-09-03T19:46:59;2.23;;;2.00;;
2972;SDS011;1496;51.404;7.232;2022-09-03T19:50:02;2.10;;;1.83;;
2972;SDS011;1496;51.404;7.232;2022-09-03T19:53:07;2.53;;;1.90;;
2972;SDS011;1496;51.404;7.232;2022-09-03T19:55:55;3.13;;;2.30;;
2972;SDS011;1496;51.404;7.232;2022-09-03T19:58:49;2.80;;;1.97;;
2972;SDS011;1496;51.404;7.232;2022-09-03T20:01:38;2.90;;;2.40;;
2972;SDS011;1496;51.404;7.232;2022-09-03T20:04:26;3.30;;;2.00;;
2972;SDS011;1496;51.404;7.232;2022-09-03T20:07:15;6.40;;;2.13;;
2972;SDS011;1496;51.404;7.232;2022-09-03T20:10:01;2.73;;;2.20;;
2972;SDS011;1496;51.404;7.232;2022-09-03T20:18:33;2.67;;;2.47;;
2972;SDS011;1496;51.404;7.232;2022-09-03T20:27:02;2.90;;;2.40;;
2972;SDS011;1496;51.404;7.232;2022-09-03T20:32:50;4.47;;;2.37;;
2972;SDS011;1496;51.404;7.232;2022-09-03T20:41:08;2.23;;;2.00;;
2972;SDS011;1496;51.404;7.232;2022-09-03T20:43:55;2.93;;;2.37;;
2972;SDS011;1496;51.404;7.232;2022-09-03T20:50:00;2.30;;;1.77;;
2972;SDS011;1496;51.404;7.232;2022-09-03T20:55:32;5.60;;;2.30;;
2972;SDS011;1496;51.404;7.232;2022-09-03T21:01:09;2.17;;;1.90;;
2972;SDS011;1496;51.404;7.232;2022-09-03T21:04:16;2.07;;;1.87;;
2972;SDS011;1496;51.404;7.232;2022-09-03T21:07:00;2.67;;;2.43;;
2972;SDS011;1496;51.404;7.232;2022-09-03T21:18:21;2.23;;;1.97;;
2972;SDS011;1496;51.404;7.232;2022-09-03T21:23:50;3.17;;;2.30;;
2972;SDS011;1496;51.404;7.232;2022-09-03T21:26:40;2.30;;;2.10;;
2972;SDS011;1496;51.404;7.232;2022-09-03T21:31:50;3.57;;;2.37;;
2972;SDS011;1496;51.404;7.232;2022-09-03T21:34:19;2.33;;;2.13;;
2972;SDS011;1496;51.404;7.232;2022-09-03T21:36:49;2.93;;;2.13;;
2972;SDS011;1496;51.404;7.232;2022-09-03T21:39:19;2.90;;;2.60;;
2972;SDS011;1496;51.404;7.232;2022-09-03T21:47:01;3.30;;;2.37;;
2972;SDS011;1496;51.404;7.232;2022-09-03T21:49:34;2.97;;;2.67;;
2972;SDS011;1496;51.404;7.232;2022-09-03T21:52:18;3.60;;;2.93;;
2972;SDS011;1496;51.404;7.232;2022-09-03T21:54:47;3.37;;;2.50;;
2972;SDS011;1496;51.404;7.232;2022-09-03T22:02:56;2.50;;;2.30;;